Time;durP1;ratioP1;P1;durP2;ratioP2;P2;SDS_P1;SDS_P2;PMS_P1;PMS_P2;Temp;Humidity;BMP_temperature;BMP_pressure;BME280_temperature;BME280_humidity;BME280_pressure;Samples;Min_cycle;Max_cycle;Signal;HPM_P1;HPM_P2
2021/03/21 00:02:03;;;;;;;107.10;69.32;;;;;;;4.82;81.07;71082.44;4978575;28;20480;-75
2021/03/21 00:04:30;;;;;;;110.57;68.28;;;;;;;4.08;81.69;71006.41;4970120;28;20023;-79
2021/03/21 00:06:57;;;;;;;105.28;69.28;;;;;;;4.73;81.42;71072.34;4979080;28;20033;-76
2021/03/21 00:09:23;;;;;;;114.30;68.25;;;;;;;5.10;80.89;71114.47;4983257;28;20080;-76
2021/03/21 00:11:50;;;;;;;119.32;70.03;;;;;;;5.20;81.82;71126.91;4979345;28;20031;-91
2021/03/21 00:14:17;;;;;;;115.68;70.55;;;;;;;4.55;80.40;71052.19;4964642;28;20063;-81
2021/03/21 00:16:44;;;;;;;107.07;67.05;;;;;;;5.03;81.44;71107.34;4976056;28;20023;-91
2021/03/21 00:19:11;;;;;;;113.22;67.90;;;;;;;5.32;80.56;71140.56;4979184;28;20477;-91
2021/03/21 00:21:38;;;;;;;106.00;68.07;;;;;;;5.19;81.32;71125.13;4989132;28;20055;-93
2021/03/21 00:24:07;;;;;;;118.95;69.07;;;;;;;4.98;81.18;71101.41;4975656;28;20035;-93
2021/03/21 00:26:35;;;;;;;113.57;72.05;;;;;;;4.70;81.13;71069.38;4986552;28;20113;-91
2021/03/21 00:29:05;;;;;;;109.55;70.60;;;;;;;5.26;81.61;71128.00;4964594;28;20373;-91
2021/03/21 00:31:32;;;;;;;109.93;70.47;;;;;;;4.87;81.40;71088.38;4977551;28;20150;-92
2021/03/21 00:33:59;;;;;;;112.28;70.05;;;;;;;4.96;81.94;71098.44;4959865;28;20094;-92
2021/03/21 00:36:26;;;;;;;124.85;75.43;;;;;;;4.67;82.09;71063.09;4976870;28;20476;-93
2021/03/21 00:38:54;;;;;;;110.55;69.25;;;;;;;5.26;81.75;71132.84;4965016;28;20050;-91
2021/03/21 00:41:24;;;;;;;106.03;64.40;;;;;;;5.12;79.32;71114.69;4963008;28;20098;-87
2021/03/21 00:43:53;;;;;;;102.18;68.03;;;;;;;4.10;78.82;70997.91;4970886;28;20136;-89
2021/03/21 00:46:20;;;;;;;82.07;55.38;;;;;;;6.06;77.89;71229.69;4959186;28;20034;-88
2021/03/21 00:48:47;;;;;;;104.38;66.43;;;;;;;6.00;77.03;71217.69;4961908;28;20027;-87
2021/03/21 00:51:15;;;;;;;102.95;65.70;;;;;;;6.14;74.69;71231.59;4984738;28;20042;-89
2021/03/21 00:53:44;;;;;;;104.90;63.80;;;;;;;6.38;73.94;71261.03;4972951;28;20034;-87
2021/03/21 00:56:27;;;;;;;102.75;68.07;;;;;;;6.16;75.58;71233.38;4958253;28;20031;-87
2021/03/21 00:58:55;;;;;;;101.68;63.63;;;;;;;6.24;76.08;71245.03;4958623;28;20547;-87
2021/03/21 01:01:22;;;;;;;103.57;65.93;;;;;;;5.30;77.53;71135.44;4971208;28;20027;-87
2021/03/21 01:03:49;;;;;;;105.80;67.03;;;;;;;5.11;78.28;71115.66;4958673;28;20118;-89
2021/03/21 01:06:16;;;;;;;108.13;68.63;;;;;;;5.60;78.65;71172.59;4959029;28;20035;-86
2021/03/21 01:08:43;;;;;;;101.95;63.25;;;;;;;4.71;77.94;71069.97;4975871;28;20023;-88
2021/03/21 01:11:22;;;;;;;107.45;64.72;;;;;;;5.65;77.83;71177.34;4976137;28;20027;-90
2021/03/21 01:13:49;;;;;;;106.18;67.43;;;;;;;4.92;78.80;71091.56;4959346;28;20027;-89
2021/03/21 01:16:23;;;;;;;112.05;70.32;;;;;;;5.32;79.82;71140.56;4973193;28;20121;-91
2021/03/21 01:18:52;;;;;;;112.85;67.18;;;;;;;5.38;80.08;71146.47;4973859;28;20492;-89
2021/03/21 01:21:20;;;;;;;115.88;71.43;;;;;;;4.32;79.65;71022.78;4952936;28;20043;-85
2021/03/21 01:23:46;;;;;;;124.75;70.10;;;;;;;4.96;80.46;71099.03;4960567;28;20043;-85
2021/03/21 01:26:16;;;;;;;121.75;67.25;;;;;;;5.10;80.21;71115.03;4963811;28;20027;-84
2021/03/21 01:28:44;;;;;;;123.75;73.05;;;;;;;4.14;80.89;71005.38;4956732;28;20037;-84
2021/03/21 01:31:15;;;;;;;122.05;71.78;;;;;;;5.64;80.34;71176.72;4956107;28;20058;-83
2021/03/21 01:33:42;;;;;;;113.57;68.00;;;;;;;5.73;79.48;71184.69;4956666;28;20480;-85
2021/03/21 01:36:27;;;;;;;110.68;63.97;;;;;;;5.91;78.96;71207.59;4972608;28;20007;-79
2021/03/21 01:38:57;;;;;;;123.22;68.13;;;;;;;5.60;78.50;71172.59;4964735;28;20039;-84
2021/03/21 01:41:32;;;;;;;120.05;65.05;;;;;;;4.45;77.92;71040.34;4973071;28;20019;-84
2021/03/21 01:44:00;;;;;;;109.00;68.18;;;;;;;3.89;77.78;70976.94;4958983;28;20065;-86
2021/03/21 01:46:35;;;;;;;115.43;71.55;;;;;;;5.96;77.71;71210.22;4943210;29;20480;-84
2021/03/21 01:49:16;;;;;;;112.60;68.43;;;;;;;5.13;77.22;71118.00;4957348;28;20061;-84
2021/03/21 01:51:43;;;;;;;107.10;64.35;;;;;;;5.36;75.15;71144.09;4959819;28;20038;-84
2021/03/21 01:54:18;;;;;;;98.07;64.22;;;;;;;5.56;73.14;71162.41;4975084;28;20023;-84
2021/03/21 01:56:46;;;;;;;102.75;66.15;;;;;;;4.19;74.09;71014.03;4973773;28;20054;-85
2021/03/21 01:59:21;;;;;;;98.40;60.42;;;;;;;6.41;74.41;71265.19;4970448;28;20142;-84
2021/03/21 02:01:50;;;;;;;110.20;65.35;;;;;;;5.82;73.50;71194.78;4972457;28;20034;-84
2021/03/21 02:04:17;;;;;;;107.15;63.10;;;;;;;6.16;74.01;71236.72;4979727;28;20385;-84
2021/03/21 02:07:13;;;;;;;107.35;61.67;;;;;;;6.74;74.11;71299.28;4982389;28;20353;-83
2021/03/21 02:09:55;;;;;;;115.25;65.93;;;;;;;6.79;73.48;71307.97;4982475;28;20074;-83
2021/03/21 02:12:45;;;;;;;117.53;63.00;;;;;;;7.01;72.96;71332.91;4978530;28;20153;-83
2021/03/21 02:15:33;;;;;;;111.43;65.47;;;;;;;7.05;73.10;71337.66;5002341;28;20030;-84
2021/03/21 02:18:10;;;;;;;105.93;66.90;;;;;;;6.03;73.80;71221.28;4984087;28;20030;-84
2021/03/21 02:21:10;;;;;;;116.68;64.35;;;;;;;6.38;74.68;71256.19;4982218;28;20038;-83
2021/03/21 02:23:58;;;;;;;111.78;63.35;;;;;;;6.56;74.50;71279.09;4943974;28;20415;-85
2021/03/21 02:26:34;;;;;;;108.70;62.50;;;;;;;6.47;74.54;71271.72;4975210;28;20128;-84
2021/03/21 02:29:35;;;;;;;101.50;61.15;;;;;;;6.90;72.88;71321.00;4975000;28;20443;-86
2021/03/21 02:32:05;;;;;;;103.95;61.25;;;;;;;7.12;72.90;71345.97;4992215;28;20047;-84
2021/03/21 02:35:09;;;;;;;99.88;63.42;;;;;;;7.22;71.95;71354.53;4974804;28;20112;-84
2021/03/21 02:38:06;;;;;;;113.03;61.80;;;;;;;7.00;70.63;71329.56;4974521;28;20391;-83
2021/03/21 02:41:04;;;;;;;104.90;57.38;;;;;;;7.09;71.18;71340.25;4975082;28;20035;-84
2021/03/21 02:43:49;;;;;;;114.07;65.45;;;;;;;6.78;72.47;71306.78;4952434;28;20048;-84
2021/03/21 02:46:26;;;;;;;90.72;59.60;;;;;;;6.89;71.44;71319.81;4993389;28;20030;-84
2021/03/21 02:48:59;;;;;;;107.40;59.78;;;;;;;6.64;72.06;71290.72;4976071;28;20057;-83
2021/03/21 02:51:32;;;;;;;89.88;55.25;;;;;;;6.14;71.08;71234.31;4975896;28;20026;-83
2021/03/21 02:54:16;;;;;;;81.82;52.80;;;;;;;7.11;70.15;71345.38;4975316;28;20389;-83
2021/03/21 02:56:47;;;;;;;83.57;52.90;;;;;;;6.98;70.24;71329.94;4993135;28;20026;-83
2021/03/21 02:59:19;;;;;;;89.85;50.42;;;;;;;6.56;68.72;71282.41;4992806;28;20499;-83
2021/03/21 03:02:01;;;;;;;82.70;47.97;;;;;;;6.66;70.15;71293.13;4975254;28;20037;-84
2021/03/21 03:04:36;;;;;;;82.07;49.35;;;;;;;5.99;71.47;71216.50;4992599;28;20579;-84
2021/03/21 03:07:25;;;;;;;77.63;45.25;;;;;;;6.26;68.87;71247.38;4975533;28;20129;-83
2021/03/21 03:10:01;;;;;;;72.00;47.65;;;;;;;4.89;70.78;71090.72;4992280;28;20476;-84
2021/03/21 03:12:34;;;;;;;80.07;47.30;;;;;;;5.16;69.84;71121.56;4958897;28;20069;-84
2021/03/21 03:15:12;;;;;;;76.15;42.17;;;;;;;5.78;69.88;71192.16;4955538;28;20361;-84
2021/03/21 03:18:14;;;;;;;67.90;44.10;;;;;;;6.83;69.86;71310.56;4955349;28;20027;-85
2021/03/21 03:20:53;;;;;;;73.03;44.97;;;;;;;7.12;68.41;71345.97;4969102;28;20345;-82
2021/03/21 03:23:37;;;;;;;58.58;35.67;;;;;;;7.03;68.35;71335.28;4992381;28;20022;-85
2021/03/21 03:26:19;;;;;;;68.47;43.53;;;;;;;6.94;68.21;71325.16;4976585;28;20391;-84
2021/03/21 03:29:07;;;;;;;65.45;38.70;;;;;;;6.75;68.29;71303.19;4977557;28;20423;-84
2021/03/21 03:31:48;;;;;;;52.78;31.52;;;;;;;6.01;69.86;71219.47;4975503;28;20047;-85
2021/03/21 03:34:15;;;;;;;48.35;30.05;;;;;;;6.70;70.49;71298.47;4976784;28;20035;-84
2021/03/21 03:36:42;;;;;;;48.53;31.33;;;;;;;6.25;72.30;71244.06;4976474;28;20793;-86
2021/03/21 03:39:09;;;;;;;36.15;26.35;;;;;;;5.14;71.03;71119.78;4975683;28;20044;-83
2021/03/21 03:41:43;;;;;;;39.42;24.85;;;;;;;6.38;70.83;71261.66;4974803;28;20081;-85
2021/03/21 03:44:34;;;;;;;41.55;24.75;;;;;;;6.34;70.11;71254.16;4975500;28;20030;-83
2021/03/21 03:47:45;;;;;;;36.38;23.50;;;;;;;6.40;69.24;71260.69;4974728;28;20069;-86
2021/03/21 03:50:20;;;;;;;34.05;20.90;;;;;;;5.23;69.32;71129.88;4879081;29;20043;-85
2021/03/21 03:53:23;;;;;;;47.47;24.17;;;;;;;6.25;72.32;71246.22;4878638;29;20494;-85
2021/03/21 03:56:17;;;;;;;44.00;23.98;;;;;;;6.70;69.74;71298.47;4953027;28;20581;-84
2021/03/21 03:59:09;;;;;;;48.90;27.25;;;;;;;5.41;71.32;71150.06;4974668;28;20026;-86
2021/03/21 04:02:01;;;;;;;45.22;24.60;;;;;;;6.04;70.72;71219.72;4994599;28;20034;-85
2021/03/21 04:05:02;;;;;;;56.53;28.92;;;;;;;6.07;70.84;71226.00;4974566;28;20081;-85
2021/03/21 04:07:57;;;;;;;47.67;29.20;;;;;;;6.13;70.65;71233.13;4974829;28;20027;-86
2021/03/21 04:10:39;;;;;;;52.53;29.75;;;;;;;4.66;69.59;71064.66;4972285;28;20403;-85
2021/03/21 04:13:09;;;;;;;52.33;27.35;;;;;;;5.99;67.51;71217.09;4955125;28;20034;-83
2021/03/21 04:15:45;;;;;;;49.92;28.42;;;;;;;6.25;67.71;71246.22;4955183;28;20999;-86
2021/03/21 04:18:36;;;;;;;53.50;26.95;;;;;;;6.32;67.16;71253.91;4955160;28;20098;-85
2021/03/21 04:21:28;;;;;;;59.08;23.65;;;;;;;5.67;68.23;71180.31;4973375;28;20484;-85
2021/03/21 04:24:14;;;;;;;49.75;22.17;;;;;;;6.30;68.59;71249.41;4958849;28;20030;-86
2021/03/21 04:27:06;;;;;;;44.78;20.23;;;;;;;5.18;67.58;71123.94;4975968;28;20033;-85
2021/03/21 04:30:09;;;;;;;42.45;20.00;;;;;;;6.12;67.41;71231.94;4958257;28;20030;-86
2021/03/21 04:32:49;;;;;;;37.28;18.65;;;;;;;6.31;66.14;71253.34;4975671;28;20163;-86
2021/03/21 04:35:40;;;;;;;39.10;15.43;;;;;;;6.22;64.27;71243.22;4958363;28;20089;-84
2021/03/21 04:38:35;;;;;;;23.23;12.80;;;;;;;6.23;60.58;71238.38;4974982;28;20043;-84
2021/03/21 04:41:06;;;;;;;17.25;6.95;;;;;;;6.42;56.36;71263.66;4954835;28;20500;-85
2021/03/21 04:43:38;;;;;;;27.15;7.35;;;;;;;5.63;54.95;71174.97;4975948;28;20129;-85
2021/03/21 04:46:18;;;;;;;13.50;6.75;;;;;;;5.91;54.86;71207.00;4974011;28;20042;-84
2021/03/21 04:48:45;;;;;;;14.33;5.20;;;;;;;6.43;53.81;71267.56;4958645;28;20030;-84
2021/03/21 04:51:23;;;;;;;14.77;5.05;;;;;;;5.46;53.68;71156.56;4976991;28;20062;-84
2021/03/21 04:53:59;;;;;;;7.57;4.80;;;;;;;6.53;53.63;71278.25;4992941;28;20033;-86
2021/03/21 04:56:38;;;;;;;18.40;6.05;;;;;;;6.14;53.64;71233.75;4976898;28;20049;-85
2021/03/21 04:59:11;;;;;;;32.63;5.45;;;;;;;5.95;53.92;71206.31;4994423;28;20149;-86
2021/03/21 05:01:54;;;;;;;16.00;5.50;;;;;;;5.71;54.37;71182.31;4976931;28;20030;-87
2021/03/21 05:04:29;;;;;;;14.05;5.55;;;;;;;5.54;55.39;71165.47;4992964;28;20120;-86
2021/03/21 05:07:02;;;;;;;14.35;5.20;;;;;;;6.22;56.46;71242.63;4977081;28;20096;-86
2021/03/21 05:09:44;;;;;;;24.27;7.50;;;;;;;5.93;55.85;71209.97;4977089;28;20034;-84
2021/03/21 05:12:43;;;;;;;17.42;6.28;;;;;;;6.05;56.58;71223.06;4994403;28;20093;-84
2021/03/21 05:15:21;;;;;;;25.67;10.30;;;;;;;5.75;58.42;71189.81;4974546;28;20041;-84
2021/03/21 05:18:02;;;;;;;26.50;9.27;;;;;;;6.20;58.66;71238.13;4995227;28;20034;-85
2021/03/21 05:20:50;;;;;;;25.67;10.57;;;;;;;6.15;59.73;71235.53;4962395;28;20042;-86
2021/03/21 05:23:46;;;;;;;30.23;10.90;;;;;;;6.62;59.31;71286.22;4957685;28;20027;-83
2021/03/21 05:26:19;;;;;;;31.38;12.18;;;;;;;6.74;58.44;71299.28;4956989;28;20098;-85
2021/03/21 05:29:02;;;;;;;29.90;9.88;;;;;;;6.85;56.20;71315.66;4974899;28;20041;-85
2021/03/21 05:31:30;;;;;;;27.77;11.25;;;;;;;5.23;58.17;71129.88;4974017;28;20054;-84
2021/03/21 05:33:57;;;;;;;25.20;10.40;;;;;;;5.36;57.53;71144.09;4956647;28;20041;-87
2021/03/21 05:36:56;;;;;;;23.05;11.07;;;;;;;4.59;58.76;71056.94;4956871;28;20023;-86
2021/03/21 05:39:46;;;;;;;18.70;8.70;;;;;;;5.88;58.72;71201.91;4957248;28;20066;-87
2021/03/21 05:42:44;;;;;;;37.70;9.00;;;;;;;5.70;57.56;71180.56;4957135;28;20030;-86
2021/03/21 05:45:26;;;;;;;27.08;7.75;;;;;;;6.22;58.18;71239.91;4956725;28;20125;-86
2021/03/21 05:48:30;;;;;;;15.10;8.48;;;;;;;6.54;57.84;71277.31;4956885;28;20043;-85
2021/03/21 05:51:25;;;;;;;18.42;6.53;;;;;;;5.93;58.29;71207.25;4960759;28;20046;-85
2021/03/21 05:54:26;;;;;;;17.48;6.75;;;;;;;5.95;59.54;71211.75;4957312;28;20093;-85
2021/03/21 05:57:18;;;;;;;20.73;6.13;;;;;;;4.50;59.68;71044.13;4956514;28;20033;-85
2021/03/21 06:00:09;;;;;;;21.02;8.05;;;;;;;6.08;59.00;71227.22;4956325;28;20043;-86
2021/03/21 06:02:50;;;;;;;27.08;9.48;;;;;;;5.77;58.29;71202.50;4956465;28;20030;-86
2021/03/21 06:05:35;;;;;;;29.90;7.80;;;;;;;6.41;59.13;71265.19;4973510;28;20492;-86
2021/03/21 06:08:30;;;;;;;15.90;7.22;;;;;;;6.73;58.56;71298.69;4975707;28;20106;-86
2021/03/21 06:10:57;;;;;;;18.67;6.80;;;;;;;6.49;56.91;71273.50;4957430;28;20034;-84
2021/03/21 06:13:36;;;;;;;15.45;6.30;;;;;;;6.67;56.00;71294.88;4957732;28;20514;-85
2021/03/21 06:16:44;;;;;;;17.48;7.40;;;;;;;6.55;55.57;71280.66;4973184;28;20035;-84
2021/03/21 06:19:52;;;;;;;16.88;7.82;;;;;;;6.82;53.36;71308.78;4959794;28;20030;-84
2021/03/21 06:22:46;;;;;;;17.08;5.55;;;;;;;6.57;53.19;71280.28;4975301;28;20519;-83
2021/03/21 06:25:22;;;;;;;20.90;5.38;;;;;;;6.52;52.36;71274.34;4975750;28;20106;-84
2021/03/21 06:28:37;;;;;;;12.85;7.72;;;;;;;6.33;53.19;71252.97;4976757;28;20042;-85
2021/03/21 06:31:22;;;;;;;17.80;6.35;;;;;;;6.81;53.99;71310.94;4976063;28;20478;-84
2021/03/21 06:34:06;;;;;;;14.35;4.97;;;;;;;5.36;55.76;71144.09;4975257;28;20487;-86
2021/03/21 06:36:54;;;;;;;16.50;7.82;;;;;;;6.29;56.68;71250.94;4992610;28;20015;-87
2021/03/21 06:39:48;;;;;;;32.33;9.77;;;;;;;6.63;57.05;71287.41;4974659;28;20030;-85
2021/03/21 06:42:48;;;;;;;16.25;6.68;;;;;;;6.38;56.23;71261.03;4975402;28;20088;-85
2021/03/21 06:45:40;;;;;;;13.65;6.22;;;;;;;5.95;57.45;71209.03;4975283;28;20041;-84
2021/03/21 06:48:40;;;;;;;10.68;5.07;;;;;;;6.36;56.47;71255.94;4974731;28;20042;-85
2021/03/21 06:51:20;;;;;;;;;;;;;;;6.06;58.21;71224.25;4990559;28;20038;-85
2021/03/21 06:54:05;;;;;;;15.07;7.85;;;;;;;6.16;56.50;71236.72;4974798;28;19964;-86
2021/03/21 06:56:32;;;;;;;13.63;8.20;;;;;;;5.89;53.64;71205.22;4975379;28;20487;-87
2021/03/21 06:59:32;;;;;;;12.10;6.53;;;;;;;6.05;52.99;71223.63;4974848;28;20034;-86
2021/03/21 07:02:36;;;;;;;12.25;6.50;;;;;;;6.44;52.53;71263.28;4975417;28;20284;-86
2021/03/21 07:05:20;;;;;;;14.80;8.50;;;;;;;6.28;50.59;71249.75;4975993;28;20026;-85
2021/03/21 07:08:11;;;;;;;10.80;7.10;;;;;;;6.35;49.36;71258.06;4995529;28;20029;-85
2021/03/21 07:11:08;;;;;;;14.90;8.30;;;;;;;6.10;51.52;71229.59;4996532;28;20022;-87
2021/03/21 07:13:56;;;;;;;18.88;8.23;;;;;;;6.31;51.80;71253.34;4976749;28;20030;-85
2021/03/21 07:16:56;;;;;;;17.83;9.02;;;;;;;6.09;51.31;71228.41;4974472;28;20099;-86
2021/03/21 07:19:55;;;;;;;15.80;9.63;;;;;;;6.00;50.88;71217.69;4969283;28;20502;-85
2021/03/21 07:22:50;;;;;;;10.43;7.70;;;;;;;5.97;50.54;71214.72;4954921;28;20069;-85
2021/03/21 07:25:49;;;;;;;14.90;8.23;;;;;;;4.94;49.95;71096.66;4972295;28;20025;-83
2021/03/21 07:28:54;;;;;;;16.13;9.02;;;;;;;6.13;50.25;71232.56;4939576;28;20054;-84
2021/03/21 07:31:37;;;;;;;17.27;8.98;;;;;;;5.36;51.46;71144.72;4951052;28;20039;-84
2021/03/21 07:34:25;;;;;;;21.38;11.35;;;;;;;5.75;52.35;71189.19;4955173;28;20026;-86
2021/03/21 07:37:19;;;;;;;11.55;8.48;;;;;;;5.56;51.37;71167.84;4972295;28;20031;-85
2021/03/21 07:40:01;;;;;;;16.20;9.85;;;;;;;6.11;51.73;71230.78;4972040;28;20015;-86
2021/03/21 07:42:45;;;;;;;17.10;9.35;;;;;;;4.66;50.67;71064.66;4955005;28;20023;-84
2021/03/21 07:45:30;;;;;;;22.13;11.02;;;;;;;6.24;51.58;71245.03;4971000;28;20122;-84
2021/03/21 07:48:40;;;;;;;20.83;11.55;;;;;;;6.14;50.99;71228.88;4954576;28;20509;-84
2021/03/21 07:51:16;;;;;;;19.42;11.02;;;;;;;5.94;52.05;71211.16;4907353;29;20083;-85
2021/03/21 07:54:19;;;;;;;20.17;11.75;;;;;;;5.67;51.36;71179.69;4952595;28;20038;-85
2021/03/21 07:56:55;;;;;;;22.00;11.07;;;;;;;4.81;51.91;71081.25;4971212;28;20075;-84
2021/03/21 07:59:26;;;;;;;18.83;11.52;;;;;;;5.22;52.03;71125.97;4939476;29;20038;-85
2021/03/21 08:01:53;;;;;;;22.73;12.05;;;;;;;5.02;51.98;71103.44;4939881;29;20035;-85
2021/03/21 08:04:29;;;;;;;16.23;11.10;;;;;;;4.62;50.87;71060.50;4940239;29;20023;-86
2021/03/21 08:07:14;;;;;;;19.75;11.77;;;;;;;3.91;51.78;70979.28;4959042;29;20054;-87
2021/03/21 08:09:42;;;;;;;21.25;12.05;;;;;;;5.02;52.17;71105.56;4939345;29;20031;-87
2021/03/21 08:12:14;;;;;;;17.85;10.95;;;;;;;5.47;52.25;71157.16;4957195;29;20034;-86
2021/03/21 08:14:46;;;;;;;19.25;12.05;;;;;;;4.90;53.07;71091.91;4973150;28;20031;-87
2021/03/21 08:17:31;;;;;;;15.38;10.88;;;;;;;5.58;53.07;71170.22;4971427;28;20444;-85
2021/03/21 08:20:22;;;;;;;23.80;13.45;;;;;;;4.59;53.34;71056.34;4980005;28;20794;-85
2021/03/21 08:22:50;;;;;;;;;;;;;;;5.27;53.07;71134.63;4978412;28;20030;-87
2021/03/21 08:25:26;;;;;;;21.48;10.75;;;;;;;5.24;52.36;71131.06;4977766;28;19918;-86
2021/03/21 08:27:55;;;;;;;21.08;13.15;;;;;;;5.17;51.51;71123.34;4969839;28;20056;-85
2021/03/21 08:30:28;;;;;;;18.90;11.07;;;;;;;4.04;51.05;70993.53;4975496;28;20050;-86
2021/03/21 08:33:03;;;;;;;13.02;11.23;;;;;;;5.39;51.35;71147.66;4975390;28;20046;-84
2021/03/21 08:35:34;;;;;;;26.90;12.68;;;;;;;4.72;52.16;71071.75;4957774;28;20157;-86
2021/03/21 08:38:21;;;;;;;23.90;13.15;;;;;;;5.50;51.60;71160.72;4958079;28;20387;-83
2021/03/21 08:40:58;;;;;;;16.75;9.73;;;;;;;3.70;51.60;70952.88;4958127;28;20035;-86
2021/03/21 08:43:33;;;;;;;23.40;12.82;;;;;;;5.28;51.69;71135.81;4958359;28;20027;-84
2021/03/21 08:46:02;;;;;;;29.17;14.40;;;;;;;5.59;51.49;71170.81;4959207;28;20030;-86
2021/03/21 08:48:39;;;;;;;20.48;14.00;;;;;;;5.40;52.17;71149.44;4958689;28;20034;-86
2021/03/21 08:51:12;;;;;;;19.95;12.85;;;;;;;5.29;52.94;71137.00;4977554;28;20404;-85
2021/03/21 08:53:52;;;;;;;22.52;13.68;;;;;;;4.79;52.03;71080.06;4977698;28;20037;-86
2021/03/21 08:56:36;;;;;;;21.65;13.27;;;;;;;4.22;52.77;71014.84;4978390;28;20052;-86
2021/03/21 08:59:21;;;;;;;17.30;11.50;;;;;;;5.40;52.20;71148.88;4977581;28;20030;-85
2021/03/21 09:02:12;;;;;;;30.13;14.15;;;;;;;5.16;52.53;71122.16;4976695;28;20084;-87
2021/03/21 09:05:06;;;;;;;23.33;12.55;;;;;;;4.66;52.76;71064.66;4976822;28;20030;-87
2021/03/21 09:07:36;;;;;;;19.42;12.63;;;;;;;5.04;52.22;71107.91;4971595;28;20042;-85
2021/03/21 09:10:19;;;;;;;21.83;12.50;;;;;;;4.92;53.01;71094.28;4976924;28;20034;-86
2021/03/21 09:12:51;;;;;;;22.50;12.60;;;;;;;4.49;53.27;71045.69;4995034;28;20084;-84
2021/03/21 09:15:36;;;;;;;21.17;12.25;;;;;;;5.01;54.41;71099.53;4996418;28;20026;-85
2021/03/21 09:18:22;;;;;;;21.17;13.85;;;;;;;4.58;55.01;71052.44;4977130;28;20011;-86
2021/03/21 09:21:23;;;;;;;17.80;12.82;;;;;;;5.14;55.08;71119.19;4938144;29;20058;-84
2021/03/21 09:24:02;;;;;;;22.95;12.80;;;;;;;4.86;54.53;71087.16;4937876;29;20070;-84
2021/03/21 09:26:31;;;;;;;24.65;12.07;;;;;;;4.81;54.14;71081.81;4970077;28;20419;-86
2021/03/21 09:29:15;;;;;;;28.20;15.30;;;;;;;4.77;54.45;71077.69;4975145;28;20018;-84
2021/03/21 09:31:43;;;;;;;21.13;13.50;;;;;;;3.47;55.07;70928.34;4976407;28;20046;-84
2021/03/21 09:34:29;;;;;;;18.75;12.95;;;;;;;4.91;55.29;71093.09;4976405;28;20069;-85
2021/03/21 09:37:14;;;;;;;21.33;13.05;;;;;;;4.02;55.60;70991.13;4976124;28;20030;-84
2021/03/21 09:40:02;;;;;;;20.88;12.75;;;;;;;4.13;55.69;71003.59;4976292;28;20043;-86
2021/03/21 09:42:30;;;;;;;28.38;13.70;;;;;;;4.94;55.43;71096.66;4976083;28;20038;-85
2021/03/21 09:44:57;;;;;;;22.38;14.02;;;;;;;3.51;55.49;70933.09;4994248;28;20026;-85
2021/03/21 09:47:41;;;;;;;19.60;13.68;;;;;;;4.64;55.06;71062.84;4993656;28;20061;-85
2021/03/21 09:50:29;;;;;;;18.50;12.70;;;;;;;3.85;55.18;70971.59;4960936;28;20030;-86
2021/03/21 09:53:24;;;;;;;24.60;15.13;;;;;;;4.04;55.94;70993.53;4953225;29;20399;-86
2021/03/21 09:55:54;;;;;;;19.83;13.50;;;;;;;4.57;55.32;71054.56;4937585;29;20110;-86
2021/03/21 09:58:36;;;;;;;20.97;13.77;;;;;;;4.61;55.75;71058.72;4954664;29;20483;-86
2021/03/21 10:01:27;;;;;;;22.67;12.85;;;;;;;4.73;55.22;71070.22;4937193;29;20278;-86
2021/03/21 10:04:05;;;;;;;20.50;14.27;;;;;;;4.82;55.20;71082.44;4936959;29;20070;-84
2021/03/21 10:06:39;;;;;;;20.90;14.85;;;;;;;4.64;54.74;71062.28;4954520;29;20050;-85
2021/03/21 10:09:19;;;;;;;20.02;14.52;;;;;;;4.64;55.20;71062.28;4954208;29;20069;-84
2021/03/21 10:11:50;;;;;;;25.95;16.92;;;;;;;4.04;56.26;70993.53;4937171;29;20149;-86
2021/03/21 10:14:23;;;;;;;23.75;15.15;;;;;;;4.52;55.77;71049.22;4954665;29;20110;-85
2021/03/21 10:16:57;;;;;;;23.40;13.57;;;;;;;4.34;54.34;71027.91;4937191;29;20035;-86
2021/03/21 10:19:39;;;;;;;22.70;13.00;;;;;;;4.58;53.76;71055.16;4949270;28;20031;-85
2021/03/21 10:22:21;;;;;;;18.33;13.07;;;;;;;4.59;54.12;71056.34;4955932;28;20035;-85
2021/03/21 10:24:57;;;;;;;24.95;13.95;;;;;;;3.62;55.17;70946.13;4973733;28;20027;-87
2021/03/21 10:27:42;;;;;;;18.98;14.00;;;;;;;4.23;54.99;71015.44;4956544;28;20037;-83
2021/03/21 10:30:23;;;;;;;20.48;14.93;;;;;;;2.95;55.32;70869.13;4956327;28;20035;-86
2021/03/21 10:33:30;;;;;;;26.80;14.80;;;;;;;3.83;56.29;70967.09;4956040;28;20412;-86
2021/03/21 10:35:58;;;;;;;21.40;15.00;;;;;;;3.77;56.47;70962.69;4956107;28;20061;-86
2021/03/21 10:38:42;;;;;;;29.67;16.45;;;;;;;4.33;56.86;71024.00;4973185;28;20038;-87
2021/03/21 10:41:09;;;;;;;20.13;15.93;;;;;;;3.92;57.29;70979.91;4973199;28;20039;-85
2021/03/21 10:43:36;;;;;;;24.77;15.75;;;;;;;4.23;57.48;71016.03;4956237;28;20097;-86
2021/03/21 10:46:08;;;;;;;21.98;16.88;;;;;;;3.08;57.08;70884.53;4955847;28;20030;-86
2021/03/21 10:48:34;;;;;;;27.17;15.25;;;;;;;4.50;57.28;71046.25;4955774;28;20038;-85
2021/03/21 10:51:13;;;;;;;28.58;16.70;;;;;;;4.04;56.87;70993.53;4973699;28;20026;-84
2021/03/21 10:53:46;;;;;;;29.08;16.80;;;;;;;4.51;56.18;71047.44;4973961;28;20169;-85
2021/03/21 10:56:31;;;;;;;28.38;17.80;;;;;;;3.90;56.01;70978.13;4973296;28;20023;-84
2021/03/21 10:59:25;;;;;;;22.75;17.08;;;;;;;4.40;55.41;71035.00;4955788;28;20042;-84
2021/03/21 11:02:25;;;;;;;28.45;18.00;;;;;;;4.37;55.92;71031.44;4947264;28;20042;-85
2021/03/21 11:05:33;;;;;;;30.27;20.17;;;;;;;4.45;56.86;71038.19;4967918;28;20137;-85
2021/03/21 11:08:34;;;;;;;26.83;15.85;;;;;;;4.50;57.04;71046.25;4968805;28;20282;-84
2021/03/21 11:11:25;;;;;;;25.13;17.52;;;;;;;3.96;58.29;70985.22;4968055;28;20088;-84
2021/03/21 11:13:54;;;;;;;22.90;15.50;;;;;;;3.53;58.41;70935.47;4967431;28;20027;-85
2021/03/21 11:16:27;;;;;;;24.10;16.25;;;;;;;4.31;59.47;71024.31;4988098;28;20031;-84
2021/03/21 11:19:05;;;;;;;25.88;18.83;;;;;;;2.67;59.69;70834.47;4991011;28;20021;-87
2021/03/21 11:21:38;;;;;;;26.20;17.85;;;;;;;3.50;60.68;70931.91;4979287;28;20100;-85
2021/03/21 11:24:27;;;;;;;26.33;18.02;;;;;;;4.02;61.55;70991.13;4987545;28;20471;-87
2021/03/21 11:26:54;;;;;;;39.95;19.38;;;;;;;3.82;61.47;70968.63;4995467;28;20034;-85
2021/03/21 11:29:35;;;;;;;28.27;18.73;;;;;;;3.96;62.03;70985.22;4997978;28;20061;-86
2021/03/21 11:32:15;;;;;;;28.38;17.48;;;;;;;4.14;60.24;71002.66;4998375;28;20046;-85
2021/03/21 11:34:44;;;;;;;33.95;20.23;;;;;;;3.51;60.97;70933.69;4979171;28;20034;-85
2021/03/21 11:37:26;;;;;;;31.30;19.23;;;;;;;3.73;61.27;70958.56;4977892;28;20034;-85
2021/03/21 11:39:53;;;;;;;27.67;18.65;;;;;;;4.14;61.61;71004.75;4976905;28;20030;-86
2021/03/21 11:42:21;;;;;;;26.70;16.15;;;;;;;4.09;62.10;71000.03;4975729;28;20022;-84
2021/03/21 11:44:51;;;;;;;28.90;18.30;;;;;;;4.11;62.17;71002.41;4975463;28;20475;-86
2021/03/21 11:47:32;;;;;;;30.90;17.85;;;;;;;4.17;61.66;71008.91;4992477;28;20014;-86
2021/03/21 11:50:00;;;;;;;26.10;17.45;;;;;;;3.24;61.65;70899.56;4976831;28;20038;-85
2021/03/21 11:52:28;;;;;;;27.23;16.75;;;;;;;3.66;62.25;70950.88;4955430;28;20074;-84
2021/03/21 11:54:56;;;;;;;29.65;18.05;;;;;;;3.06;61.56;70882.16;4972516;28;20126;-84
2021/03/21 11:57:51;;;;;;;30.73;17.50;;;;;;;3.34;62.37;70914.16;4955158;28;20110;-85
2021/03/21 12:00:24;;;;;;;30.15;18.35;;;;;;;4.01;61.63;70990.56;4944971;28;20043;-84
2021/03/21 12:03:14;;;;;;;29.67;17.88;;;;;;;3.65;60.92;70949.06;4972271;28;20069;-86
2021/03/21 12:05:56;;;;;;;28.80;17.35;;;;;;;3.67;61.58;70952.03;4954657;28;20045;-84
2021/03/21 12:08:28;;;;;;;28.48;16.38;;;;;;;3.20;61.45;70898.13;4955645;28;20487;-87
2021/03/21 12:10:55;;;;;;;29.52;17.67;;;;;;;3.91;61.05;70981.41;4955361;28;20067;-88
2021/03/21 12:13:27;;;;;;;27.35;17.58;;;;;;;4.13;60.70;71003.59;4956221;28;20041;-84
2021/03/21 12:15:55;;;;;;;34.20;18.75;;;;;;;2.52;60.49;70820.59;4954486;28;20033;-85
2021/03/21 12:18:29;;;;;;;28.60;18.05;;;;;;;3.97;60.38;70986.41;4958514;28;20113;-84
2021/03/21 12:21:15;;;;;;;27.20;18.75;;;;;;;4.07;58.21;70997.06;4991244;28;20035;-86
2021/03/21 12:24:05;;;;;;;29.50;17.25;;;;;;;4.15;58.45;71005.97;4973512;28;20046;-84
2021/03/21 12:26:32;;;;;;;22.45;16.20;;;;;;;3.94;58.64;70982.25;4974224;28;20475;-85
2021/03/21 12:29:01;;;;;;;38.78;18.05;;;;;;;4.04;58.36;70993.53;4974309;28;20364;-84